Rechercher aéroport 
image banner adimage banner adimage banner ad
image banner ad

22CL - Double Tree Farm

Situé à Marysville, United States

ICAO - 22CL, IATA -

Données fournies par Airmate  

Information générale

Coordonnées: N39°17'60" W121°21'34"
Élévation : 550 feet MSL.
Variation magnétique : 16° East
Voir autres Aéroports à California

Données opérationnelles

Special qualification required
Heure actuelle UTC:
Heure actuelle locale:
Météo à : KBAB - Beale Afb ( 19 km )
METAR: KBAB 292258Z 17005KT 10SM CLR 39/13 A2979 RMK AO2A SLP090 T03870131 $
TAF: TAF KBAB 291900Z 2919/3101 VRB06KT 9000 FU FEW030 FEW250 QNH2972INS TEMPO 2919/2922 4800 FU SCT020 BECMG 3005/3006 09006KT 9999 NSW SCT020 BKN150 QNH2976INS BECMG 3019/3020 20006KT 9999 FEW020 QNH2979INS TX41/3000Z TN22/3014Z
Voir NOTAMs / SUP AIP / TFR affectant cet aéroport [VIEW]
Fréquences de communication: [VIEW]

Pistes:

Identifiant RWYQFULongueur (ft)Largeur (ft)SurfaceLDA (ft)
13160020GRAVEL
31160020GRAVEL

Coordonnées de l'aéroport

Adresse: Marysville United States

Vue satellite de 22CL